sensor_id;sensor_type;location;lat;lon;timestamp;P1;durP1;ratioP1;P2;durP2;ratioP2
19739;SDS011;10027;51.066;13.768;2023-07-13T00:02:22;2.07;;;1.87;;
19739;SDS011;10027;51.066;13.768;2023-07-13T00:04:49;1.60;;;1.50;;
19739;SDS011;10027;51.066;13.768;2023-07-13T00:07:16;1.90;;;1.80;;
19739;SDS011;10027;51.066;13.768;2023-07-13T00:09:46;1.90;;;1.70;;
19739;SDS011;10027;51.066;13.768;2023-07-13T00:12:23;2.00;;;1.70;;
19739;SDS011;10027;51.066;13.768;2023-07-13T00:14:51;1.60;;;1.50;;
19739;SDS011;10027;51.066;13.768;2023-07-13T00:17:18;1.77;;;1.67;;
19739;SDS011;10027;51.066;13.768;2023-07-13T00:19:45;1.70;;;1.60;;
19739;SDS011;10027;51.066;13.768;2023-07-13T00:22:13;2.17;;;1.70;;
19739;SDS011;10027;51.066;13.768;2023-07-13T00:24:40;1.73;;;1.63;;
19739;SDS011;10027;51.066;13.768;2023-07-13T00:27:11;2.07;;;1.70;;
19739;SDS011;10027;51.066;13.768;2023-07-13T00:29:38;2.57;;;1.77;;
19739;SDS011;10027;51.066;13.768;2023-07-13T00:32:06;1.70;;;1.60;;
19739;SDS011;10027;51.066;13.768;2023-07-13T00:34:35;1.80;;;1.70;;
19739;SDS011;10027;51.066;13.768;2023-07-13T00:37:03;1.90;;;1.80;;
19739;SDS011;10027;51.066;13.768;2023-07-13T00:39:33;2.07;;;1.90;;
19739;SDS011;10027;51.066;13.768;2023-07-13T00:42:01;2.50;;;1.93;;
19739;SDS011;10027;51.066;13.768;2023-07-13T00:44:28;4.13;;;2.03;;
19739;SDS011;10027;51.066;13.768;2023-07-13T00:46:56;4.23;;;2.00;;
19739;SDS011;10027;51.066;13.768;2023-07-13T00:49:25;3.50;;;2.00;;
19739;SDS011;10027;51.066;13.768;2023-07-13T00:54:23;2.53;;;2.00;;
19739;SDS011;10027;51.066;13.768;2023-07-13T00:56:52;2.50;;;1.90;;
19739;SDS011;10027;51.066;13.768;2023-07-13T00:59:20;2.20;;;2.00;;
19739;SDS011;10027;51.066;13.768;2023-07-13T01:01:48;2.10;;;1.80;;
19739;SDS011;10027;51.066;13.768;2023-07-13T01:04:16;4.63;;;2.00;;
19739;SDS011;10027;51.066;13.768;2023-07-13T01:06:43;2.40;;;2.20;;
19739;SDS011;10027;51.066;13.768;2023-07-13T01:09:13;3.53;;;2.30;;
19739;SDS011;10027;51.066;13.768;2023-07-13T01:11:42;2.60;;;2.10;;
19739;SDS011;10027;51.066;13.768;2023-07-13T01:14:11;3.40;;;2.13;;
19739;SDS011;10027;51.066;13.768;2023-07-13T01:16:38;4.30;;;2.10;;
19739;SDS011;10027;51.066;13.768;2023-07-13T01:19:54;4.60;;;2.33;;
19739;SDS011;10027;51.066;13.768;2023-07-13T01:22:06;2.50;;;2.20;;
19739;SDS011;10027;51.066;13.768;2023-07-13T01:24:38;2.40;;;2.20;;
19739;SDS011;10027;51.066;13.768;2023-07-13T01:27:06;2.73;;;2.20;;
19739;SDS011;10027;51.066;13.768;2023-07-13T01:29:34;2.20;;;2.00;;
19739;SDS011;10027;51.066;13.768;2023-07-13T01:32:22;3.17;;;2.43;;
19739;SDS011;10027;51.066;13.768;2023-07-13T01:34:51;2.50;;;2.30;;
19739;SDS011;10027;51.066;13.768;2023-07-13T01:37:21;2.27;;;2.07;;
19739;SDS011;10027;51.066;13.768;2023-07-13T01:39:48;3.40;;;2.40;;
19739;SDS011;10027;51.066;13.768;2023-07-13T01:42:15;2.20;;;2.00;;
19739;SDS011;10027;51.066;13.768;2023-07-13T01:44:42;2.23;;;2.13;;
19739;SDS011;10027;51.066;13.768;2023-07-13T01:47:10;2.30;;;2.10;;
19739;SDS011;10027;51.066;13.768;2023-07-13T01:49:37;4.13;;;2.27;;
19739;SDS011;10027;51.066;13.768;2023-07-13T01:52:04;2.40;;;2.20;;
19739;SDS011;10027;51.066;13.768;2023-07-13T01:54:31;2.30;;;2.10;;
19739;SDS011;10027;51.066;13.768;2023-07-13T01:57:00;2.73;;;2.30;;
19739;SDS011;10027;51.066;13.768;2023-07-13T01:59:27;2.30;;;2.10;;
19739;SDS011;10027;51.066;13.768;2023-07-13T02:01:54;2.40;;;2.20;;
19739;SDS011;10027;51.066;13.768;2023-07-13T02:04:22;2.20;;;2.00;;
19739;SDS011;10027;51.066;13.768;2023-07-13T02:06:49;2.37;;;2.10;;
19739;SDS011;10027;51.066;13.768;2023-07-13T02:09:17;3.17;;;2.27;;
19739;SDS011;10027;51.066;13.768;2023-07-13T02:11:44;2.60;;;2.40;;
19739;SDS011;10027;51.066;13.768;2023-07-13T02:14:11;2.50;;;2.30;;
19739;SDS011;10027;51.066;13.768;2023-07-13T02:16:38;2.47;;;2.27;;
19739;SDS011;10027;51.066;13.768;2023-07-13T02:19:05;2.80;;;2.20;;
19739;SDS011;10027;51.066;13.768;2023-07-13T02:21:33;3.97;;;2.30;;
19739;SDS011;10027;51.066;13.768;2023-07-13T02:24:00;2.87;;;2.40;;
19739;SDS011;10027;51.066;13.768;2023-07-13T02:26:27;2.77;;;2.43;;
19739;SDS011;10027;51.066;13.768;2023-07-13T02:28:55;2.80;;;2.60;;
19739;SDS011;10027;51.066;13.768;2023-07-13T02:31:22;3.33;;;2.40;;
19739;SDS011;10027;51.066;13.768;2023-07-13T02:33:49;5.53;;;3.00;;
19739;SDS011;10027;51.066;13.768;2023-07-13T02:36:16;2.67;;;2.47;;
19739;SDS011;10027;51.066;13.768;2023-07-13T02:38:44;4.93;;;2.77;;
19739;SDS011;10027;51.066;13.768;2023-07-13T02:41:11;3.30;;;2.43;;
19739;SDS011;10027;51.066;13.768;2023-07-13T02:43:39;3.27;;;2.50;;
19739;SDS011;10027;51.066;13.768;2023-07-13T02:46:06;2.87;;;2.57;;
19739;SDS011;10027;51.066;13.768;2023-07-13T02:48:34;3.57;;;2.80;;
19739;SDS011;10027;51.066;13.768;2023-07-13T02:51:02;3.80;;;2.83;;
19739;SDS011;10027;51.066;13.768;2023-07-13T02:53:29;3.80;;;2.90;;
19739;SDS011;10027;51.066;13.768;2023-07-13T02:55:56;4.67;;;2.87;;
19739;SDS011;10027;51.066;13.768;2023-07-13T02:58:41;2.93;;;2.63;;
19739;SDS011;10027;51.066;13.768;2023-07-13T03:01:09;3.00;;;2.47;;
19739;SDS011;10027;51.066;13.768;2023-07-13T03:03:37;3.73;;;2.80;;
19739;SDS011;10027;51.066;13.768;2023-07-13T03:06:04;4.47;;;2.70;;
19739;SDS011;10027;51.066;13.768;2023-07-13T03:08:34;3.93;;;2.80;;
19739;SDS011;10027;51.066;13.768;2023-07-13T03:11:02;3.00;;;2.70;;
19739;SDS011;10027;51.066;13.768;2023-07-13T03:13:29;4.07;;;3.00;;
19739;SDS011;10027;51.066;13.768;2023-07-13T03:15:57;3.83;;;2.93;;
19739;SDS011;10027;51.066;13.768;2023-07-13T03:18:26;3.47;;;2.93;;
19739;SDS011;10027;51.066;13.768;2023-07-13T03:20:53;3.00;;;2.80;;
19739;SDS011;10027;51.066;13.768;2023-07-13T03:23:20;2.73;;;2.47;;
19739;SDS011;10027;51.066;13.768;2023-07-13T03:25:48;3.73;;;2.87;;
19739;SDS011;10027;51.066;13.768;2023-07-13T03:28:15;3.00;;;2.50;;
19739;SDS011;10027;51.066;13.768;2023-07-13T03:30:43;3.33;;;2.70;;
19739;SDS011;10027;51.066;13.768;2023-07-13T03:33:10;3.27;;;2.80;;
19739;SDS011;10027;51.066;13.768;2023-07-13T03:35:39;3.87;;;2.50;;
19739;SDS011;10027;51.066;13.768;2023-07-13T03:38:07;5.37;;;3.07;;
19739;SDS011;10027;51.066;13.768;2023-07-13T03:40:34;2.87;;;2.67;;
19739;SDS011;10027;51.066;13.768;2023-07-13T03:43:01;2.87;;;2.33;;
19739;SDS011;10027;51.066;13.768;2023-07-13T03:45:29;3.53;;;2.63;;
19739;SDS011;10027;51.066;13.768;2023-07-13T03:47:56;3.43;;;2.87;;
19739;SDS011;10027;51.066;13.768;2023-07-13T03:50:23;2.80;;;2.50;;
19739;SDS011;10027;51.066;13.768;2023-07-13T03:52:50;3.37;;;2.50;;
19739;SDS011;10027;51.066;13.768;2023-07-13T03:55:18;3.00;;;2.70;;
19739;SDS011;10027;51.066;13.768;2023-07-13T03:57:45;4.03;;;2.50;;
19739;SDS011;10027;51.066;13.768;2023-07-13T04:00:12;3.73;;;2.90;;
19739;SDS011;10027;51.066;13.768;2023-07-13T04:02:39;4.13;;;2.60;;
19739;SDS011;10027;51.066;13.768;2023-07-13T04:05:07;2.97;;;2.67;;
19739;SDS011;10027;51.066;13.768;2023-07-13T04:07:34;5.00;;;2.70;;
19739;SDS011;10027;51.066;13.768;2023-07-13T04:10:01;9.63;;;2.87;;
19739;SDS011;10027;51.066;13.768;2023-07-13T04:12:28;4.63;;;2.70;;
19739;SDS011;10027;51.066;13.768;2023-07-13T04:14:56;2.70;;;2.50;;
19739;SDS011;10027;51.066;13.768;2023-07-13T04:17:23;4.17;;;2.83;;
19739;SDS011;10027;51.066;13.768;2023-07-13T04:19:50;4.17;;;2.70;;
19739;SDS011;10027;51.066;13.768;2023-07-13T04:22:18;3.30;;;2.60;;
19739;SDS011;10027;51.066;13.768;2023-07-13T04:24:45;4.20;;;2.73;;
19739;SDS011;10027;51.066;13.768;2023-07-13T04:27:12;3.13;;;2.83;;
19739;SDS011;10027;51.066;13.768;2023-07-13T04:29:39;2.90;;;2.43;;
19739;SDS011;10027;51.066;13.768;2023-07-13T04:32:07;4.20;;;3.00;;
19739;SDS011;10027;51.066;13.768;2023-07-13T04:34:35;5.00;;;2.70;;
19739;SDS011;10027;51.066;13.768;2023-07-13T04:37:02;3.17;;;2.87;;
19739;SDS011;10027;51.066;13.768;2023-07-13T04:39:30;3.97;;;2.60;;
19739;SDS011;10027;51.066;13.768;2023-07-13T04:41:57;4.07;;;2.53;;
19739;SDS011;10027;51.066;13.768;2023-07-13T04:44:24;3.10;;;2.70;;
19739;SDS011;10027;51.066;13.768;2023-07-13T04:46:52;4.63;;;2.97;;
19739;SDS011;10027;51.066;13.768;2023-07-13T04:49:19;4.07;;;2.90;;
19739;SDS011;10027;51.066;13.768;2023-07-13T04:51:47;4.13;;;2.80;;
19739;SDS011;10027;51.066;13.768;2023-07-13T04:54:14;3.57;;;3.00;;
19739;SDS011;10027;51.066;13.768;2023-07-13T04:56:41;4.57;;;2.73;;
19739;SDS011;10027;51.066;13.768;2023-07-13T04:59:08;3.20;;;2.90;;
19739;SDS011;10027;51.066;13.768;2023-07-13T05:01:35;3.60;;;2.53;;
19739;SDS011;10027;51.066;13.768;2023-07-13T05:04:02;3.13;;;2.70;;
19739;SDS011;10027;51.066;13.768;2023-07-13T05:06:30;2.67;;;2.43;;
19739;SDS011;10027;51.066;13.768;2023-07-13T05:08:57;3.90;;;2.70;;
19739;SDS011;10027;51.066;13.768;2023-07-13T05:11:24;3.13;;;2.67;;
19739;SDS011;10027;51.066;13.768;2023-07-13T05:13:52;4.67;;;2.67;;
19739;SDS011;10027;51.066;13.768;2023-07-13T05:16:19;2.90;;;2.70;;
19739;SDS011;10027;51.066;13.768;2023-07-13T05:18:46;3.00;;;2.70;;
19739;SDS011;10027;51.066;13.768;2023-07-13T05:21:13;4.20;;;2.60;;
19739;SDS011;10027;51.066;13.768;2023-07-13T05:23:41;2.73;;;2.53;;
19739;SDS011;10027;51.066;13.768;2023-07-13T05:26:08;2.80;;;2.60;;
19739;SDS011;10027;51.066;13.768;2023-07-13T05:28:35;3.23;;;2.50;;
19739;SDS011;10027;51.066;13.768;2023-07-13T05:31:03;2.60;;;2.40;;
19739;SDS011;10027;51.066;13.768;2023-07-13T05:33:31;3.90;;;2.63;;
19739;SDS011;10027;51.066;13.768;2023-07-13T05:35:58;2.70;;;2.50;;
19739;SDS011;10027;51.066;13.768;2023-07-13T05:38:27;3.23;;;2.43;;
19739;SDS011;10027;51.066;13.768;2023-07-13T05:40:55;3.57;;;2.70;;
19739;SDS011;10027;51.066;13.768;2023-07-13T05:43:22;3.20;;;2.67;;
19739;SDS011;10027;51.066;13.768;2023-07-13T05:45:51;3.43;;;2.90;;
19739;SDS011;10027;51.066;13.768;2023-07-13T05:48:18;3.23;;;2.60;;
19739;SDS011;10027;51.066;13.768;2023-07-13T05:50:45;2.83;;;2.63;;
19739;SDS011;10027;51.066;13.768;2023-07-13T05:53:12;2.87;;;2.50;;
19739;SDS011;10027;51.066;13.768;2023-07-13T05:55:43;2.70;;;2.50;;
19739;SDS011;10027;51.066;13.768;2023-07-13T05:58:11;4.10;;;2.70;;
19739;SDS011;10027;51.066;13.768;2023-07-13T06:00:38;3.33;;;2.93;;
19739;SDS011;10027;51.066;13.768;2023-07-13T06:03:06;2.40;;;2.20;;
19739;SDS011;10027;51.066;13.768;2023-07-13T06:05:34;3.53;;;2.38;;
19739;SDS011;10027;51.066;13.768;2023-07-13T06:08:02;2.67;;;2.35;;
19739;SDS011;10027;51.066;13.768;2023-07-13T06:10:31;2.88;;;2.60;;
19739;SDS011;10027;51.066;13.768;2023-07-13T06:12:59;3.45;;;2.60;;
19739;SDS011;10027;51.066;13.768;2023-07-13T06:15:26;3.15;;;2.28;;
19739;SDS011;10027;51.066;13.768;2023-07-13T06:17:54;2.83;;;2.50;;
19739;SDS011;10027;51.066;13.768;2023-07-13T06:20:21;2.95;;;2.42;;
19739;SDS011;10027;51.066;13.768;2023-07-13T06:22:48;2.50;;;1.90;;
19739;SDS011;10027;51.066;13.768;2023-07-13T06:25:15;3.05;;;1.92;;
19739;SDS011;10027;51.066;13.768;2023-07-13T06:27:44;2.28;;;2.00;;
19739;SDS011;10027;51.066;13.768;2023-07-13T06:30:11;3.60;;;2.20;;
19739;SDS011;10027;51.066;13.768;2023-07-13T06:32:38;3.30;;;2.30;;
19739;SDS011;10027;51.066;13.768;2023-07-13T06:35:07;5.30;;;2.10;;
19739;SDS011;10027;51.066;13.768;2023-07-13T06:37:34;2.97;;;2.27;;
19739;SDS011;10027;51.066;13.768;2023-07-13T06:40:01;3.53;;;2.13;;
19739;SDS011;10027;51.066;13.768;2023-07-13T06:42:29;3.40;;;2.40;;
19739;SDS011;10027;51.066;13.768;2023-07-13T06:44:57;2.57;;;2.37;;
19739;SDS011;10027;51.066;13.768;2023-07-13T06:47:24;3.63;;;2.00;;
19739;SDS011;10027;51.066;13.768;2023-07-13T06:49:51;3.43;;;2.20;;
19739;SDS011;10027;51.066;13.768;2023-07-13T06:52:18;3.20;;;2.20;;
19739;SDS011;10027;51.066;13.768;2023-07-13T06:54:45;2.50;;;2.30;;
19739;SDS011;10027;51.066;13.768;2023-07-13T06:57:13;3.50;;;2.30;;
19739;SDS011;10027;51.066;13.768;2023-07-13T06:59:40;2.65;;;2.45;;
19739;SDS011;10027;51.066;13.768;2023-07-13T07:02:09;2.47;;;2.20;;
19739;SDS011;10027;51.066;13.768;2023-07-13T07:04:36;3.90;;;2.40;;
19739;SDS011;10027;51.066;13.768;2023-07-13T07:07:03;5.45;;;2.33;;
19739;SDS011;10027;51.066;13.768;2023-07-13T07:09:30;3.22;;;2.22;;
19739;SDS011;10027;51.066;13.768;2023-07-13T07:11:58;3.53;;;2.72;;
19739;SDS011;10027;51.066;13.768;2023-07-13T07:14:29;3.40;;;2.33;;
19739;SDS011;10027;51.066;13.768;2023-07-13T07:16:57;2.90;;;2.25;;
19739;SDS011;10027;51.066;13.768;2023-07-13T07:19:25;2.33;;;1.90;;
19739;SDS011;10027;51.066;13.768;2023-07-13T07:21:52;2.20;;;2.00;;
19739;SDS011;10027;51.066;13.768;2023-07-13T07:24:19;4.88;;;2.60;;
19739;SDS011;10027;51.066;13.768;2023-07-13T07:26:47;3.30;;;2.40;;
19739;SDS011;10027;51.066;13.768;2023-07-13T07:29:17;2.83;;;2.33;;
19739;SDS011;10027;51.066;13.768;2023-07-13T07:31:47;3.10;;;2.50;;
19739;SDS011;10027;51.066;13.768;2023-07-13T07:34:34;3.80;;;2.60;;
19739;SDS011;10027;51.066;13.768;2023-07-13T07:37:02;3.53;;;2.20;;
19739;SDS011;10027;51.066;13.768;2023-07-13T07:39:32;4.10;;;2.27;;
19739;SDS011;10027;51.066;13.768;2023-07-13T07:42:00;2.47;;;2.27;;
19739;SDS011;10027;51.066;13.768;2023-07-13T07:44:27;2.83;;;2.47;;
19739;SDS011;10027;51.066;13.768;2023-07-13T07:46:55;3.13;;;2.35;;
19739;SDS011;10027;51.066;13.768;2023-07-13T07:49:22;4.72;;;2.97;;
19739;SDS011;10027;51.066;13.768;2023-07-13T07:51:49;2.38;;;2.17;;
19739;SDS011;10027;51.066;13.768;2023-07-13T07:54:16;3.20;;;2.08;;
19739;SDS011;10027;51.066;13.768;2023-07-13T07:57:04;2.03;;;1.83;;
19739;SDS011;10027;51.066;13.768;2023-07-13T07:59:34;2.15;;;1.95;;
19739;SDS011;10027;51.066;13.768;2023-07-13T08:02:06;2.97;;;2.35;;
19739;SDS011;10027;51.066;13.768;2023-07-13T08:04:53;2.42;;;1.77;;
19739;SDS011;10027;51.066;13.768;2023-07-13T08:07:23;2.10;;;1.90;;
19739;SDS011;10027;51.066;13.768;2023-07-13T08:09:53;1.88;;;1.73;;
19739;SDS011;10027;51.066;13.768;2023-07-13T08:12:20;2.13;;;1.90;;
19739;SDS011;10027;51.066;13.768;2023-07-13T08:14:51;2.65;;;1.70;;
19739;SDS011;10027;51.066;13.768;2023-07-13T12:42:46;2.75;;;1.65;;
19739;SDS011;10027;51.066;13.768;2023-07-13T12:45:19;2.55;;;1.55;;
19739;SDS011;10027;51.066;13.768;2023-07-13T12:47:52;2.88;;;1.55;;
19739;SDS011;10027;51.066;13.768;2023-07-13T12:50:21;1.80;;;1.20;;
19739;SDS011;10027;51.066;13.768;2023-07-13T12:52:53;2.45;;;1.40;;
19739;SDS011;10027;51.066;13.768;2023-07-13T12:55:21;1.95;;;1.40;;
19739;SDS011;10027;51.066;13.768;2023-07-13T12:57:51;1.58;;;1.40;;
19739;SDS011;10027;51.066;13.768;2023-07-13T13:02:46;1.77;;;1.50;;
19739;SDS011;10027;51.066;13.768;2023-07-13T13:05:16;2.08;;;1.52;;
19739;SDS011;10027;51.066;13.768;2023-07-13T13:07:43;1.58;;;1.27;;
19739;SDS011;10027;51.066;13.768;2023-07-13T13:10:13;3.80;;;1.40;;
19739;SDS011;10027;51.066;13.768;2023-07-13T13:12:40;1.83;;;1.40;;
19739;SDS011;10027;51.066;13.768;2023-07-13T13:15:11;1.85;;;1.50;;
19739;SDS011;10027;51.066;13.768;2023-07-13T13:17:38;2.55;;;1.50;;
19739;SDS011;10027;51.066;13.768;2023-07-13T13:20:19;1.63;;;1.50;;
19739;SDS011;10027;51.066;13.768;2023-07-13T13:22:47;1.55;;;1.27;;
19739;SDS011;10027;51.066;13.768;2023-07-13T13:25:14;1.73;;;1.20;;
19739;SDS011;10027;51.066;13.768;2023-07-13T13:27:42;3.28;;;1.45;;
19739;SDS011;10027;51.066;13.768;2023-07-13T13:30:11;3.33;;;1.27;;
19739;SDS011;10027;51.066;13.768;2023-07-13T13:32:39;3.22;;;1.10;;
19739;SDS011;10027;51.066;13.768;2023-07-13T13:35:16;1.40;;;1.20;;
19739;SDS011;10027;51.066;13.768;2023-07-13T13:37:44;1.88;;;1.35;;
19739;SDS011;10027;51.066;13.768;2023-07-13T13:40:13;2.97;;;1.40;;
19739;SDS011;10027;51.066;13.768;2023-07-13T13:42:41;1.58;;;1.30;;
19739;SDS011;10027;51.066;13.768;2023-07-13T13:45:11;2.55;;;1.33;;
19739;SDS011;10027;51.066;13.768;2023-07-13T13:47:39;1.33;;;1.23;;
19739;SDS011;10027;51.066;13.768;2023-07-13T13:50:13;1.77;;;1.25;;
19739;SDS011;10027;51.066;13.768;2023-07-13T13:52:42;2.53;;;1.30;;
19739;SDS011;10027;51.066;13.768;2023-07-13T13:55:19;2.60;;;1.40;;
19739;SDS011;10027;51.066;13.768;2023-07-13T13:57:47;3.75;;;1.63;;
19739;SDS011;10027;51.066;13.768;2023-07-13T14:00:14;1.83;;;1.50;;
19739;SDS011;10027;51.066;13.768;2023-07-13T14:02:45;2.60;;;1.60;;
19739;SDS011;10027;51.066;13.768;2023-07-13T14:05:21;1.35;;;1.20;;
19739;SDS011;10027;51.066;13.768;2023-07-13T14:07:49;1.33;;;1.10;;
19739;SDS011;10027;51.066;13.768;2023-07-13T14:10:17;3.40;;;1.27;;
19739;SDS011;10027;51.066;13.768;2023-07-13T14:12:45;2.75;;;1.30;;
19739;SDS011;10027;51.066;13.768;2023-07-13T14:15:21;2.55;;;1.55;;
19739;SDS011;10027;51.066;13.768;2023-07-13T14:17:49;2.72;;;1.58;;
19739;SDS011;10027;51.066;13.768;2023-07-13T14:20:17;1.30;;;1.20;;
19739;SDS011;10027;51.066;13.768;2023-07-13T14:22:44;2.60;;;1.50;;
19739;SDS011;10027;51.066;13.768;2023-07-13T14:25:12;2.23;;;1.43;;
19739;SDS011;10027;51.066;13.768;2023-07-13T14:27:39;1.50;;;1.40;;
19739;SDS011;10027;51.066;13.768;2023-07-13T14:30:17;2.33;;;1.33;;
19739;SDS011;10027;51.066;13.768;2023-07-13T14:32:45;2.57;;;1.30;;
19739;SDS011;10027;51.066;13.768;2023-07-13T14:35:13;1.67;;;1.40;;
19739;SDS011;10027;51.066;13.768;2023-07-13T14:37:40;4.47;;;1.40;;
19739;SDS011;10027;51.066;13.768;2023-07-13T14:40:17;2.23;;;1.50;;
19739;SDS011;10027;51.066;13.768;2023-07-13T14:42:46;1.83;;;1.30;;
19739;SDS011;10027;51.066;13.768;2023-07-13T14:45:14;5.00;;;1.57;;
19739;SDS011;10027;51.066;13.768;2023-07-13T14:47:42;2.00;;;1.50;;
19739;SDS011;10027;51.066;13.768;2023-07-13T14:50:13;3.67;;;1.33;;
19739;SDS011;10027;51.066;13.768;2023-07-13T14:52:42;2.97;;;1.33;;
19739;SDS011;10027;51.066;13.768;2023-07-13T14:55:13;1.67;;;1.40;;
19739;SDS011;10027;51.066;13.768;2023-07-13T14:57:40;2.63;;;1.50;;
19739;SDS011;10027;51.066;13.768;2023-07-13T15:02:45;3.80;;;1.50;;
19739;SDS011;10027;51.066;13.768;2023-07-13T15:07:41;2.47;;;1.50;;
19739;SDS011;10027;51.066;13.768;2023-07-13T15:12:44;1.17;;;1.10;;
19739;SDS011;10027;51.066;13.768;2023-07-13T15:15:12;2.13;;;1.40;;
19739;SDS011;10027;51.066;13.768;2023-07-13T15:17:43;4.27;;;1.43;;
19739;SDS011;10027;51.066;13.768;2023-07-13T15:20:15;1.77;;;1.07;;
19739;SDS011;10027;51.066;13.768;2023-07-13T15:22:44;1.27;;;1.10;;
19739;SDS011;10027;51.066;13.768;2023-07-13T15:25:13;1.23;;;1.13;;
19739;SDS011;10027;51.066;13.768;2023-07-13T15:27:41;1.33;;;1.20;;
19739;SDS011;10027;51.066;13.768;2023-07-13T15:30:08;2.10;;;1.27;;
19739;SDS011;10027;51.066;13.768;2023-07-13T15:32:38;1.33;;;1.00;;
19739;SDS011;10027;51.066;13.768;2023-07-13T15:35:09;2.23;;;1.20;;
19739;SDS011;10027;51.066;13.768;2023-07-13T15:37:40;1.23;;;1.10;;
19739;SDS011;10027;51.066;13.768;2023-07-13T15:40:07;1.50;;;0.93;;
19739;SDS011;10027;51.066;13.768;2023-07-13T15:42:34;1.37;;;1.10;;
19739;SDS011;10027;51.066;13.768;2023-07-13T15:45:02;1.67;;;0.87;;
19739;SDS011;10027;51.066;13.768;2023-07-13T15:47:29;1.70;;;1.20;;
19739;SDS011;10027;51.066;13.768;2023-07-13T15:49:56;1.00;;;0.80;;
19739;SDS011;10027;51.066;13.768;2023-07-13T15:52:24;1.97;;;1.30;;
19739;SDS011;10027;51.066;13.768;2023-07-13T15:54:51;1.67;;;1.07;;
19739;SDS011;10027;51.066;13.768;2023-07-13T15:57:19;3.23;;;0.80;;
19739;SDS011;10027;51.066;13.768;2023-07-13T15:59:46;1.10;;;0.80;;
19739;SDS011;10027;51.066;13.768;2023-07-13T16:02:17;0.87;;;0.73;;
19739;SDS011;10027;51.066;13.768;2023-07-13T16:04:45;1.73;;;0.80;;
19739;SDS011;10027;51.066;13.768;2023-07-13T16:07:14;2.07;;;0.70;;
19739;SDS011;10027;51.066;13.768;2023-07-13T16:09:43;1.43;;;0.73;;
19739;SDS011;10027;51.066;13.768;2023-07-13T16:12:14;0.70;;;0.67;;
19739;SDS011;10027;51.066;13.768;2023-07-13T16:14:43;1.07;;;0.70;;
19739;SDS011;10027;51.066;13.768;2023-07-13T16:17:13;0.97;;;0.70;;
19739;SDS011;10027;51.066;13.768;2023-07-13T16:19:41;1.03;;;0.70;;
19739;SDS011;10027;51.066;13.768;2023-07-13T16:22:14;1.57;;;0.80;;
19739;SDS011;10027;51.066;13.768;2023-07-13T16:24:42;1.40;;;0.60;;
19739;SDS011;10027;51.066;13.768;2023-07-13T16:27:11;1.30;;;0.77;;
19739;SDS011;10027;51.066;13.768;2023-07-13T16:29:39;1.90;;;0.80;;
19739;SDS011;10027;51.066;13.768;2023-07-13T16:34:38;0.80;;;0.60;;
19739;SDS011;10027;51.066;13.768;2023-07-13T16:37:40;0.70;;;0.70;;
19739;SDS011;10027;51.066;13.768;2023-07-13T16:40:18;1.27;;;1.00;;
19739;SDS011;10027;51.066;13.768;2023-07-13T16:42:48;1.53;;;1.00;;
19739;SDS011;10027;51.066;13.768;2023-07-13T16:45:17;1.40;;;1.30;;
19739;SDS011;10027;51.066;13.768;2023-07-13T16:47:46;1.67;;;1.30;;
19739;SDS011;10027;51.066;13.768;2023-07-13T16:50:21;3.00;;;1.33;;
19739;SDS011;10027;51.066;13.768;2023-07-13T16:52:48;2.40;;;1.60;;
19739;SDS011;10027;51.066;13.768;2023-07-13T16:55:18;1.70;;;1.60;;
19739;SDS011;10027;51.066;13.768;2023-07-13T16:58:00;2.03;;;1.80;;
19739;SDS011;10027;51.066;13.768;2023-07-13T17:00:31;2.17;;;1.93;;
19739;SDS011;10027;51.066;13.768;2023-07-13T17:02:59;2.30;;;1.90;;
19739;SDS011;10027;51.066;13.768;2023-07-13T17:05:35;1.93;;;1.60;;
19739;SDS011;10027;51.066;13.768;2023-07-13T17:08:13;1.90;;;1.73;;
19739;SDS011;10027;51.066;13.768;2023-07-13T17:10:41;2.30;;;2.10;;
19739;SDS011;10027;51.066;13.768;2023-07-13T17:13:11;2.20;;;2.00;;
19739;SDS011;10027;51.066;13.768;2023-07-13T17:15:38;2.03;;;1.80;;
19739;SDS011;10027;51.066;13.768;2023-07-13T17:18:06;2.37;;;2.00;;
19739;SDS011;10027;51.066;13.768;2023-07-13T17:20:38;1.70;;;1.60;;
19739;SDS011;10027;51.066;13.768;2023-07-13T17:23:16;1.63;;;1.50;;
19739;SDS011;10027;51.066;13.768;2023-07-13T17:25:44;4.07;;;1.70;;
19739;SDS011;10027;51.066;13.768;2023-07-13T17:28:12;1.87;;;1.33;;
19739;SDS011;10027;51.066;13.768;2023-07-13T17:30:40;1.70;;;1.40;;
19739;SDS011;10027;51.066;13.768;2023-07-13T17:33:14;2.47;;;1.70;;
19739;SDS011;10027;51.066;13.768;2023-07-13T17:35:47;2.03;;;1.70;;
19739;SDS011;10027;51.066;13.768;2023-07-13T17:38:14;2.50;;;1.53;;
19739;SDS011;10027;51.066;13.768;2023-07-13T17:40:41;1.20;;;1.10;;
19739;SDS011;10027;51.066;13.768;2023-07-13T17:43:08;2.77;;;1.33;;
19739;SDS011;10027;51.066;13.768;2023-07-13T17:45:35;1.53;;;1.20;;
19739;SDS011;10027;51.066;13.768;2023-07-13T17:48:03;2.27;;;1.13;;
19739;SDS011;10027;51.066;13.768;2023-07-13T17:50:32;1.30;;;1.20;;
19739;SDS011;10027;51.066;13.768;2023-07-13T17:55:36;1.17;;;1.00;;
19739;SDS011;10027;51.066;13.768;2023-07-13T17:58:03;2.47;;;1.20;;
19739;SDS011;10027;51.066;13.768;2023-07-13T18:00:31;2.33;;;1.30;;
19739;SDS011;10027;51.066;13.768;2023-07-13T18:03:20;1.70;;;1.00;;
19739;SDS011;10027;51.066;13.768;2023-07-13T18:05:50;1.20;;;1.00;;
19739;SDS011;10027;51.066;13.768;2023-07-13T18:08:24;2.70;;;0.90;;
19739;SDS011;10027;51.066;13.768;2023-07-13T18:10:53;0.83;;;0.77;;
19739;SDS011;10027;51.066;13.768;2023-07-13T18:13:21;2.30;;;1.07;;
19739;SDS011;10027;51.066;13.768;2023-07-13T18:15:48;1.57;;;0.80;;
19739;SDS011;10027;51.066;13.768;2023-07-13T18:18:17;1.33;;;0.90;;
19739;SDS011;10027;51.066;13.768;2023-07-13T18:20:45;1.37;;;0.90;;
19739;SDS011;10027;51.066;13.768;2023-07-13T18:23:16;3.00;;;0.93;;
19739;SDS011;10027;51.066;13.768;2023-07-13T18:25:44;1.50;;;0.97;;
19739;SDS011;10027;51.066;13.768;2023-07-13T18:28:12;1.47;;;0.80;;
19739;SDS011;10027;51.066;13.768;2023-07-13T18:30:39;2.23;;;1.10;;
19739;SDS011;10027;51.066;13.768;2023-07-13T18:33:10;1.00;;;0.90;;
19739;SDS011;10027;51.066;13.768;2023-07-13T18:35:42;1.07;;;0.90;;
19739;SDS011;10027;51.066;13.768;2023-07-13T18:38:18;0.93;;;0.90;;
19739;SDS011;10027;51.066;13.768;2023-07-13T18:40:46;1.47;;;1.00;;
19739;SDS011;10027;51.066;13.768;2023-07-13T18:43:20;1.23;;;0.93;;
19739;SDS011;10027;51.066;13.768;2023-07-13T18:45:54;1.27;;;0.80;;
19739;SDS011;10027;51.066;13.768;2023-07-13T18:48:22;2.60;;;1.00;;
19739;SDS011;10027;51.066;13.768;2023-07-13T18:50:51;1.90;;;1.00;;
19739;SDS011;10027;51.066;13.768;2023-07-13T18:53:18;2.20;;;1.10;;
19739;SDS011;10027;51.066;13.768;2023-07-13T18:55:46;1.40;;;1.00;;
19739;SDS011;10027;51.066;13.768;2023-07-13T18:58:13;1.60;;;1.17;;
19739;SDS011;10027;51.066;13.768;2023-07-13T19:00:41;1.60;;;1.10;;
19739;SDS011;10027;51.066;13.768;2023-07-13T19:03:13;1.20;;;0.90;;
19739;SDS011;10027;51.066;13.768;2023-07-13T19:05:41;1.03;;;0.80;;
19739;SDS011;10027;51.066;13.768;2023-07-13T19:08:26;2.87;;;0.90;;
19739;SDS011;10027;51.066;13.768;2023-07-13T19:10:53;1.40;;;0.80;;
19739;SDS011;10027;51.066;13.768;2023-07-13T19:13:22;1.23;;;0.87;;
19739;SDS011;10027;51.066;13.768;2023-07-13T19:15:49;3.17;;;1.00;;
19739;SDS011;10027;51.066;13.768;2023-07-13T19:18:17;1.10;;;0.97;;
19739;SDS011;10027;51.066;13.768;2023-07-13T19:20:48;2.37;;;1.10;;
19739;SDS011;10027;51.066;13.768;2023-07-13T19:23:30;1.37;;;1.00;;
19739;SDS011;10027;51.066;13.768;2023-07-13T19:26:20;1.47;;;1.00;;
19739;SDS011;10027;51.066;13.768;2023-07-13T19:28:45;1.97;;;1.13;;